sensor_id;sensor_type;location;lat;lon;timestamp;P1;durP1;ratioP1;P2;durP2;ratioP2
1601;SDS011;794;48.592;9.634;2022-12-17T00:00:22;17.93;;;12.63;;
1601;SDS011;794;48.592;9.634;2022-12-17T00:03:07;18.50;;;13.80;;
1601;SDS011;794;48.592;9.634;2022-12-17T00:05:52;15.47;;;11.77;;
1601;SDS011;794;48.592;9.634;2022-12-17T00:08:37;17.10;;;14.07;;
1601;SDS011;794;48.592;9.634;2022-12-17T00:11:22;16.20;;;12.97;;
1601;SDS011;794;48.592;9.634;2022-12-17T00:14:07;21.87;;;12.20;;
1601;SDS011;794;48.592;9.634;2022-12-17T00:16:51;16.63;;;10.90;;
1601;SDS011;794;48.592;9.634;2022-12-17T00:19:35;15.70;;;10.20;;
1601;SDS011;794;48.592;9.634;2022-12-17T00:22:20;21.13;;;11.93;;
1601;SDS011;794;48.592;9.634;2022-12-17T00:25:04;14.60;;;12.10;;
1601;SDS011;794;48.592;9.634;2022-12-17T00:27:50;13.53;;;10.20;;
1601;SDS011;794;48.592;9.634;2022-12-17T00:30:35;17.63;;;12.87;;
1601;SDS011;794;48.592;9.634;2022-12-17T00:33:19;16.10;;;12.43;;
1601;SDS011;794;48.592;9.634;2022-12-17T00:36:03;14.27;;;10.37;;
1601;SDS011;794;48.592;9.634;2022-12-17T00:38:48;16.03;;;10.90;;
1601;SDS011;794;48.592;9.634;2022-12-17T00:41:32;22.13;;;13.83;;
1601;SDS011;794;48.592;9.634;2022-12-17T00:44:18;13.43;;;11.43;;
1601;SDS011;794;48.592;9.634;2022-12-17T00:47:02;14.70;;;11.03;;
1601;SDS011;794;48.592;9.634;2022-12-17T00:49:47;15.90;;;10.97;;
1601;SDS011;794;48.592;9.634;2022-12-17T00:52:31;12.87;;;9.90;;
1601;SDS011;794;48.592;9.634;2022-12-17T00:55:16;18.27;;;10.97;;
1601;SDS011;794;48.592;9.634;2022-12-17T00:58:00;17.10;;;10.30;;
1601;SDS011;794;48.592;9.634;2022-12-17T01:00:46;25.17;;;11.57;;
1601;SDS011;794;48.592;9.634;2022-12-17T01:03:31;13.13;;;11.10;;
1601;SDS011;794;48.592;9.634;2022-12-17T01:06:15;22.13;;;10.53;;
1601;SDS011;794;48.592;9.634;2022-12-17T01:08:59;20.87;;;9.87;;
1601;SDS011;794;48.592;9.634;2022-12-17T01:11:55;9.50;;;7.97;;
1601;SDS011;794;48.592;9.634;2022-12-17T01:14:42;19.93;;;11.67;;
1601;SDS011;794;48.592;9.634;2022-12-17T01:17:28;14.50;;;9.97;;
1601;SDS011;794;48.592;9.634;2022-12-17T01:20:12;14.67;;;9.50;;
1601;SDS011;794;48.592;9.634;2022-12-17T01:22:56;20.70;;;10.50;;
1601;SDS011;794;48.592;9.634;2022-12-17T01:25:40;22.50;;;12.60;;
1601;SDS011;794;48.592;9.634;2022-12-17T01:28:25;18.00;;;10.97;;
1601;SDS011;794;48.592;9.634;2022-12-17T01:31:10;19.70;;;10.63;;
1601;SDS011;794;48.592;9.634;2022-12-17T01:33:56;13.37;;;11.57;;
1601;SDS011;794;48.592;9.634;2022-12-17T01:36:46;16.07;;;11.80;;
1601;SDS011;794;48.592;9.634;2022-12-17T01:39:30;14.77;;;10.50;;
1601;SDS011;794;48.592;9.634;2022-12-17T01:42:14;18.90;;;10.47;;
1601;SDS011;794;48.592;9.634;2022-12-17T01:45:00;15.20;;;11.37;;
1601;SDS011;794;48.592;9.634;2022-12-17T01:47:43;26.47;;;13.97;;
1601;SDS011;794;48.592;9.634;2022-12-17T01:50:32;18.90;;;13.50;;
1601;SDS011;794;48.592;9.634;2022-12-17T01:53:20;18.73;;;10.50;;
1601;SDS011;794;48.592;9.634;2022-12-17T01:56:07;18.03;;;11.60;;
1601;SDS011;794;48.592;9.634;2022-12-17T01:58:52;15.07;;;10.63;;
1601;SDS011;794;48.592;9.634;2022-12-17T02:01:39;13.80;;;11.07;;
1601;SDS011;794;48.592;9.634;2022-12-17T02:04:23;18.23;;;11.20;;
1601;SDS011;794;48.592;9.634;2022-12-17T02:07:14;14.80;;;11.40;;
1601;SDS011;794;48.592;9.634;2022-12-17T02:10:11;18.77;;;11.50;;
1601;SDS011;794;48.592;9.634;2022-12-17T02:13:06;26.57;;;13.47;;
1601;SDS011;794;48.592;9.634;2022-12-17T02:16:09;16.03;;;10.33;;
1601;SDS011;794;48.592;9.634;2022-12-17T02:18:59;18.60;;;11.57;;
1601;SDS011;794;48.592;9.634;2022-12-17T02:21:48;21.17;;;11.33;;
1601;SDS011;794;48.592;9.634;2022-12-17T02:24:38;17.30;;;11.40;;
1601;SDS011;794;48.592;9.634;2022-12-17T02:27:32;20.93;;;12.50;;
1601;SDS011;794;48.592;9.634;2022-12-17T02:30:18;16.63;;;11.50;;
1601;SDS011;794;48.592;9.634;2022-12-17T02:33:03;20.87;;;11.93;;
1601;SDS011;794;48.592;9.634;2022-12-17T02:35:48;18.50;;;12.03;;
1601;SDS011;794;48.592;9.634;2022-12-17T02:38:40;22.60;;;13.40;;
1601;SDS011;794;48.592;9.634;2022-12-17T02:41:25;19.40;;;12.37;;
1601;SDS011;794;48.592;9.634;2022-12-17T02:44:21;17.50;;;13.43;;
1601;SDS011;794;48.592;9.634;2022-12-17T02:47:07;15.50;;;11.13;;
1601;SDS011;794;48.592;9.634;2022-12-17T02:49:53;18.50;;;12.20;;
1601;SDS011;794;48.592;9.634;2022-12-17T02:52:38;18.93;;;13.67;;
1601;SDS011;794;48.592;9.634;2022-12-17T02:55:29;17.27;;;12.27;;
1601;SDS011;794;48.592;9.634;2022-12-17T02:58:14;15.13;;;12.03;;
1601;SDS011;794;48.592;9.634;2022-12-17T03:01:01;17.73;;;12.57;;
1601;SDS011;794;48.592;9.634;2022-12-17T03:03:46;23.17;;;13.23;;
1601;SDS011;794;48.592;9.634;2022-12-17T03:06:31;19.30;;;13.13;;
1601;SDS011;794;48.592;9.634;2022-12-17T03:09:15;16.47;;;10.87;;
1601;SDS011;794;48.592;9.634;2022-12-17T03:12:00;17.80;;;12.90;;
1601;SDS011;794;48.592;9.634;2022-12-17T03:14:44;19.30;;;11.30;;
1601;SDS011;794;48.592;9.634;2022-12-17T03:17:30;22.43;;;12.70;;
1601;SDS011;794;48.592;9.634;2022-12-17T03:20:14;22.23;;;13.83;;
1601;SDS011;794;48.592;9.634;2022-12-17T03:23:02;19.40;;;14.90;;
1601;SDS011;794;48.592;9.634;2022-12-17T03:25:47;23.73;;;12.73;;
1601;SDS011;794;48.592;9.634;2022-12-17T03:28:32;19.20;;;13.17;;
1601;SDS011;794;48.592;9.634;2022-12-17T03:31:17;16.63;;;10.93;;
1601;SDS011;794;48.592;9.634;2022-12-17T03:34:02;21.77;;;15.00;;
1601;SDS011;794;48.592;9.634;2022-12-17T03:36:47;18.13;;;13.37;;
1601;SDS011;794;48.592;9.634;2022-12-17T03:39:34;19.73;;;13.10;;
1601;SDS011;794;48.592;9.634;2022-12-17T03:42:18;21.20;;;13.97;;
1601;SDS011;794;48.592;9.634;2022-12-17T03:45:02;20.97;;;11.00;;
1601;SDS011;794;48.592;9.634;2022-12-17T03:47:47;17.30;;;11.37;;
1601;SDS011;794;48.592;9.634;2022-12-17T03:50:33;23.70;;;12.27;;
1601;SDS011;794;48.592;9.634;2022-12-17T03:53:17;20.97;;;11.60;;
1601;SDS011;794;48.592;9.634;2022-12-17T03:56:01;28.13;;;15.47;;
1601;SDS011;794;48.592;9.634;2022-12-17T03:58:46;18.50;;;13.60;;
1601;SDS011;794;48.592;9.634;2022-12-17T04:01:31;15.10;;;11.30;;
1601;SDS011;794;48.592;9.634;2022-12-17T04:04:15;23.13;;;16.20;;
1601;SDS011;794;48.592;9.634;2022-12-17T04:07:01;20.57;;;13.47;;
1601;SDS011;794;48.592;9.634;2022-12-17T04:09:46;18.23;;;12.97;;
1601;SDS011;794;48.592;9.634;2022-12-17T04:12:30;22.10;;;14.80;;
1601;SDS011;794;48.592;9.634;2022-12-17T04:15:14;16.00;;;12.20;;
1601;SDS011;794;48.592;9.634;2022-12-17T04:17:59;19.77;;;13.80;;
1601;SDS011;794;48.592;9.634;2022-12-17T04:20:43;21.93;;;14.10;;
1601;SDS011;794;48.592;9.634;2022-12-17T04:23:28;22.53;;;14.80;;
1601;SDS011;794;48.592;9.634;2022-12-17T04:26:13;20.70;;;13.40;;
1601;SDS011;794;48.592;9.634;2022-12-17T04:28:57;21.27;;;12.70;;
1601;SDS011;794;48.592;9.634;2022-12-17T04:31:41;25.58;;;17.45;;
1601;SDS011;794;48.592;9.634;2022-12-17T04:34:26;25.10;;;17.00;;
1601;SDS011;794;48.592;9.634;2022-12-17T04:37:10;31.53;;;16.80;;
1601;SDS011;794;48.592;9.634;2022-12-17T04:39:56;22.77;;;12.90;;
1601;SDS011;794;48.592;9.634;2022-12-17T04:42:43;21.30;;;14.90;;
1601;SDS011;794;48.592;9.634;2022-12-17T04:45:27;24.30;;;15.70;;
1601;SDS011;794;48.592;9.634;2022-12-17T04:48:12;21.23;;;14.40;;
1601;SDS011;794;48.592;9.634;2022-12-17T04:51:11;19.50;;;13.87;;
1601;SDS011;794;48.592;9.634;2022-12-17T04:53:55;25.83;;;17.10;;
1601;SDS011;794;48.592;9.634;2022-12-17T04:56:41;23.80;;;15.47;;
1601;SDS011;794;48.592;9.634;2022-12-17T04:59:26;26.47;;;16.10;;
1601;SDS011;794;48.592;9.634;2022-12-17T05:02:10;31.70;;;18.87;;
1601;SDS011;794;48.592;9.634;2022-12-17T05:04:54;25.20;;;17.00;;
1601;SDS011;794;48.592;9.634;2022-12-17T05:07:39;26.60;;;18.80;;
1601;SDS011;794;48.592;9.634;2022-12-17T05:10:23;28.83;;;17.97;;
1601;SDS011;794;48.592;9.634;2022-12-17T05:13:09;25.00;;;17.87;;
1601;SDS011;794;48.592;9.634;2022-12-17T05:15:54;23.77;;;16.00;;
1601;SDS011;794;48.592;9.634;2022-12-17T05:18:39;26.30;;;15.47;;
1601;SDS011;794;48.592;9.634;2022-12-17T05:21:23;27.10;;;18.50;;
1601;SDS011;794;48.592;9.634;2022-12-17T05:24:07;26.33;;;17.67;;
1601;SDS011;794;48.592;9.634;2022-12-17T05:26:51;32.13;;;18.83;;
1601;SDS011;794;48.592;9.634;2022-12-17T05:29:37;27.93;;;17.40;;
1601;SDS011;794;48.592;9.634;2022-12-17T05:32:27;29.47;;;18.67;;
1601;SDS011;794;48.592;9.634;2022-12-17T05:35:12;28.30;;;18.30;;
1601;SDS011;794;48.592;9.634;2022-12-17T05:38:01;31.47;;;17.80;;
1601;SDS011;794;48.592;9.634;2022-12-17T05:40:46;23.80;;;16.70;;
1601;SDS011;794;48.592;9.634;2022-12-17T05:43:31;26.50;;;17.77;;
1601;SDS011;794;48.592;9.634;2022-12-17T05:46:16;27.20;;;17.67;;
1601;SDS011;794;48.592;9.634;2022-12-17T05:49:01;28.37;;;17.93;;
1601;SDS011;794;48.592;9.634;2022-12-17T05:51:45;22.70;;;16.60;;
1601;SDS011;794;48.592;9.634;2022-12-17T05:54:31;28.33;;;17.13;;
1601;SDS011;794;48.592;9.634;2022-12-17T05:57:16;31.50;;;19.50;;
1601;SDS011;794;48.592;9.634;2022-12-17T06:00:00;32.43;;;18.87;;
1601;SDS011;794;48.592;9.634;2022-12-17T06:02:46;28.67;;;16.27;;
1601;SDS011;794;48.592;9.634;2022-12-17T06:05:31;22.00;;;15.17;;
1601;SDS011;794;48.592;9.634;2022-12-17T06:08:16;23.90;;;15.47;;
1601;SDS011;794;48.592;9.634;2022-12-17T06:11:00;27.50;;;17.37;;
1601;SDS011;794;48.592;9.634;2022-12-17T06:13:45;28.07;;;16.77;;
1601;SDS011;794;48.592;9.634;2022-12-17T06:16:29;31.23;;;16.93;;
1601;SDS011;794;48.592;9.634;2022-12-17T06:19:15;28.73;;;17.90;;
1601;SDS011;794;48.592;9.634;2022-12-17T06:22:00;28.27;;;18.07;;
1601;SDS011;794;48.592;9.634;2022-12-17T06:24:44;28.63;;;17.20;;
1601;SDS011;794;48.592;9.634;2022-12-17T06:27:28;22.03;;;14.47;;
1601;SDS011;794;48.592;9.634;2022-12-17T06:30:13;31.17;;;16.83;;
1601;SDS011;794;48.592;9.634;2022-12-17T06:33:04;23.30;;;15.03;;
1601;SDS011;794;48.592;9.634;2022-12-17T06:35:52;26.03;;;16.20;;
1601;SDS011;794;48.592;9.634;2022-12-17T06:38:37;27.20;;;16.90;;
1601;SDS011;794;48.592;9.634;2022-12-17T06:41:21;27.63;;;17.70;;
1601;SDS011;794;48.592;9.634;2022-12-17T06:44:05;23.87;;;15.93;;
1601;SDS011;794;48.592;9.634;2022-12-17T06:46:50;19.63;;;12.80;;
1601;SDS011;794;48.592;9.634;2022-12-17T06:49:34;20.40;;;13.70;;
1601;SDS011;794;48.592;9.634;2022-12-17T06:52:19;27.67;;;16.90;;
1601;SDS011;794;48.592;9.634;2022-12-17T06:55:06;21.13;;;13.60;;
1601;SDS011;794;48.592;9.634;2022-12-17T06:57:54;22.33;;;12.53;;
1601;SDS011;794;48.592;9.634;2022-12-17T07:00:38;21.60;;;13.73;;
1601;SDS011;794;48.592;9.634;2022-12-17T07:03:23;25.63;;;14.00;;
1601;SDS011;794;48.592;9.634;2022-12-17T07:06:08;26.53;;;15.33;;
1601;SDS011;794;48.592;9.634;2022-12-17T07:08:54;27.92;;;16.42;;
1601;SDS011;794;48.592;9.634;2022-12-17T07:11:38;21.87;;;15.10;;
1601;SDS011;794;48.592;9.634;2022-12-17T07:14:23;21.07;;;14.20;;
1601;SDS011;794;48.592;9.634;2022-12-17T07:17:07;20.00;;;14.07;;
1601;SDS011;794;48.592;9.634;2022-12-17T07:19:51;22.07;;;14.30;;
1601;SDS011;794;48.592;9.634;2022-12-17T07:22:36;19.67;;;12.73;;
1601;SDS011;794;48.592;9.634;2022-12-17T07:25:27;23.20;;;12.23;;
1601;SDS011;794;48.592;9.634;2022-12-17T07:28:11;17.70;;;11.77;;
1601;SDS011;794;48.592;9.634;2022-12-17T07:30:55;19.03;;;13.73;;
1601;SDS011;794;48.592;9.634;2022-12-17T07:33:40;20.83;;;12.93;;
1601;SDS011;794;48.592;9.634;2022-12-17T07:36:24;23.10;;;13.17;;
1601;SDS011;794;48.592;9.634;2022-12-17T07:39:08;22.53;;;12.37;;
1601;SDS011;794;48.592;9.634;2022-12-17T07:41:54;21.33;;;12.20;;
1601;SDS011;794;48.592;9.634;2022-12-17T07:44:39;24.27;;;11.37;;
1601;SDS011;794;48.592;9.634;2022-12-17T07:47:35;14.50;;;10.67;;
1601;SDS011;794;48.592;9.634;2022-12-17T07:50:19;20.43;;;11.30;;
1601;SDS011;794;48.592;9.634;2022-12-17T07:53:04;19.23;;;11.10;;
1601;SDS011;794;48.592;9.634;2022-12-17T07:55:48;22.80;;;12.80;;
1601;SDS011;794;48.592;9.634;2022-12-17T07:58:36;21.43;;;12.10;;
1601;SDS011;794;48.592;9.634;2022-12-17T08:01:20;17.03;;;11.33;;
1601;SDS011;794;48.592;9.634;2022-12-17T08:04:05;15.47;;;11.57;;
1601;SDS011;794;48.592;9.634;2022-12-17T08:06:49;19.87;;;11.00;;
1601;SDS011;794;48.592;9.634;2022-12-17T08:09:34;13.23;;;10.33;;
1601;SDS011;794;48.592;9.634;2022-12-17T08:12:18;12.70;;;9.27;;
1601;SDS011;794;48.592;9.634;2022-12-17T08:15:05;15.97;;;10.60;;
1601;SDS011;794;48.592;9.634;2022-12-17T08:17:50;15.03;;;9.53;;
1601;SDS011;794;48.592;9.634;2022-12-17T08:20:34;10.50;;;7.63;;
1601;SDS011;794;48.592;9.634;2022-12-17T08:23:19;11.90;;;8.43;;
1601;SDS011;794;48.592;9.634;2022-12-17T08:26:04;17.77;;;11.73;;
1601;SDS011;794;48.592;9.634;2022-12-17T08:28:48;22.40;;;12.67;;
1601;SDS011;794;48.592;9.634;2022-12-17T08:31:34;17.90;;;12.67;;
1601;SDS011;794;48.592;9.634;2022-12-17T08:34:19;16.30;;;11.87;;
1601;SDS011;794;48.592;9.634;2022-12-17T08:37:03;16.23;;;10.47;;
1601;SDS011;794;48.592;9.634;2022-12-17T08:39:48;13.40;;;9.50;;
1601;SDS011;794;48.592;9.634;2022-12-17T08:42:32;21.17;;;13.00;;
1601;SDS011;794;48.592;9.634;2022-12-17T08:45:13;24.23;;;12.30;;
1601;SDS011;794;48.592;9.634;2022-12-17T08:48:02;14.70;;;12.23;;
1601;SDS011;794;48.592;9.634;2022-12-17T08:50:47;30.90;;;17.80;;
1601;SDS011;794;48.592;9.634;2022-12-17T08:53:32;29.03;;;17.13;;
1601;SDS011;794;48.592;9.634;2022-12-17T08:56:16;21.03;;;12.70;;
1601;SDS011;794;48.592;9.634;2022-12-17T08:59:00;16.70;;;11.00;;
1601;SDS011;794;48.592;9.634;2022-12-17T09:01:45;15.10;;;10.40;;
1601;SDS011;794;48.592;9.634;2022-12-17T09:04:33;8.80;;;7.10;;
1601;SDS011;794;48.592;9.634;2022-12-17T09:07:17;9.40;;;7.60;;
1601;SDS011;794;48.592;9.634;2022-12-17T09:10:02;14.07;;;7.10;;
1601;SDS011;794;48.592;9.634;2022-12-17T09:12:47;6.03;;;5.43;;
1601;SDS011;794;48.592;9.634;2022-12-17T09:15:31;10.07;;;6.50;;
1601;SDS011;794;48.592;9.634;2022-12-17T09:18:18;16.87;;;7.90;;
1601;SDS011;794;48.592;9.634;2022-12-17T09:21:07;11.70;;;7.30;;
1601;SDS011;794;48.592;9.634;2022-12-17T09:23:51;13.90;;;8.43;;
1601;SDS011;794;48.592;9.634;2022-12-17T09:26:36;14.70;;;9.17;;
1601;SDS011;794;48.592;9.634;2022-12-17T09:29:20;11.50;;;9.37;;
1601;SDS011;794;48.592;9.634;2022-12-17T09:32:05;33.00;;;14.00;;
1601;SDS011;794;48.592;9.634;2022-12-17T09:34:49;16.93;;;11.30;;
1601;SDS011;794;48.592;9.634;2022-12-17T09:37:35;12.40;;;9.20;;
1601;SDS011;794;48.592;9.634;2022-12-17T09:40:20;16.23;;;9.33;;
1601;SDS011;794;48.592;9.634;2022-12-17T09:43:10;15.53;;;9.60;;
1601;SDS011;794;48.592;9.634;2022-12-17T09:46:08;13.23;;;9.23;;
1601;SDS011;794;48.592;9.634;2022-12-17T09:49:00;11.27;;;7.77;;
1601;SDS011;794;48.592;9.634;2022-12-17T09:51:47;9.40;;;6.60;;
1601;SDS011;794;48.592;9.634;2022-12-17T09:54:34;8.90;;;6.40;;
1601;SDS011;794;48.592;9.634;2022-12-17T09:57:27;7.93;;;6.10;;
1601;SDS011;794;48.592;9.634;2022-12-17T10:00:20;9.10;;;6.80;;
1601;SDS011;794;48.592;9.634;2022-12-17T10:03:09;9.60;;;6.73;;
1601;SDS011;794;48.592;9.634;2022-12-17T10:05:55;12.07;;;8.10;;
1601;SDS011;794;48.592;9.634;2022-12-17T10:08:42;16.43;;;9.13;;
1601;SDS011;794;48.592;9.634;2022-12-17T10:11:29;18.40;;;12.40;;
1601;SDS011;794;48.592;9.634;2022-12-17T10:14:25;18.60;;;14.83;;
1601;SDS011;794;48.592;9.634;2022-12-17T10:17:10;17.00;;;12.33;;
1601;SDS011;794;48.592;9.634;2022-12-17T10:20:00;16.87;;;11.17;;
1601;SDS011;794;48.592;9.634;2022-12-17T10:22:46;17.60;;;13.00;;
1601;SDS011;794;48.592;9.634;2022-12-17T10:25:32;18.10;;;9.40;;
1601;SDS011;794;48.592;9.634;2022-12-17T10:28:19;8.37;;;6.63;;
1601;SDS011;794;48.592;9.634;2022-12-17T10:31:06;10.50;;;7.77;;
1601;SDS011;794;48.592;9.634;2022-12-17T10:33:54;9.23;;;6.87;;
1601;SDS011;794;48.592;9.634;2022-12-17T10:36:43;24.77;;;17.20;;
1601;SDS011;794;48.592;9.634;2022-12-17T10:39:28;28.40;;;18.43;;
1601;SDS011;794;48.592;9.634;2022-12-17T10:42:20;20.57;;;13.03;;
1601;SDS011;794;48.592;9.634;2022-12-17T10:45:23;14.30;;;11.07;;
1601;SDS011;794;48.592;9.634;2022-12-17T10:48:18;15.63;;;12.43;;
1601;SDS011;794;48.592;9.634;2022-12-17T10:51:04;38.90;;;19.83;;
1601;SDS011;794;48.592;9.634;2022-12-17T10:53:59;34.80;;;20.60;;
1601;SDS011;794;48.592;9.634;2022-12-17T10:56:52;25.30;;;18.53;;
1601;SDS011;794;48.592;9.634;2022-12-17T10:59:40;25.53;;;17.27;;
1601;SDS011;794;48.592;9.634;2022-12-17T11:02:26;18.40;;;13.40;;
1601;SDS011;794;48.592;9.634;2022-12-17T11:05:13;19.07;;;13.83;;
1601;SDS011;794;48.592;9.634;2022-12-17T11:08:19;16.60;;;12.93;;
1601;SDS011;794;48.592;9.634;2022-12-17T11:11:05;15.13;;;10.60;;
1601;SDS011;794;48.592;9.634;2022-12-17T11:13:52;11.90;;;9.83;;
1601;SDS011;794;48.592;9.634;2022-12-17T11:16:43;11.70;;;7.87;;
1601;SDS011;794;48.592;9.634;2022-12-17T11:19:35;11.10;;;8.00;;
1601;SDS011;794;48.592;9.634;2022-12-17T11:22:28;20.80;;;11.90;;
1601;SDS011;794;48.592;9.634;2022-12-17T11:25:24;19.80;;;15.00;;
1601;SDS011;794;48.592;9.634;2022-12-17T11:28:14;21.30;;;16.10;;
1601;SDS011;794;48.592;9.634;2022-12-17T11:31:10;16.10;;;11.27;;
1601;SDS011;794;48.592;9.634;2022-12-17T11:34:10;13.10;;;9.20;;
1601;SDS011;794;48.592;9.634;2022-12-17T11:37:01;14.10;;;10.43;;
1601;SDS011;794;48.592;9.634;2022-12-17T11:39:57;16.67;;;9.97;;
1601;SDS011;794;48.592;9.634;2022-12-17T11:42:49;8.03;;;6.60;;
1601;SDS011;794;48.592;9.634;2022-12-17T11:45:50;12.80;;;8.20;;
1601;SDS011;794;48.592;9.634;2022-12-17T11:48:43;9.97;;;7.67;;
1601;SDS011;794;48.592;9.634;2022-12-17T11:51:33;9.33;;;8.33;;
1601;SDS011;794;48.592;9.634;2022-12-17T11:54:24;15.90;;;10.90;;
1601;SDS011;794;48.592;9.634;2022-12-17T11:57:23;14.40;;;9.97;;
1601;SDS011;794;48.592;9.634;2022-12-17T12:00:14;17.80;;;11.47;;
1601;SDS011;794;48.592;9.634;2022-12-17T12:03:03;16.03;;;10.00;;
1601;SDS011;794;48.592;9.634;2022-12-17T12:06:02;16.10;;;9.27;;
1601;SDS011;794;48.592;9.634;2022-12-17T12:08:54;13.80;;;8.43;;
1601;SDS011;794;48.592;9.634;2022-12-17T12:11:59;12.50;;;8.07;;
1601;SDS011;794;48.592;9.634;2022-12-17T12:14:53;13.83;;;9.20;;
1601;SDS011;794;48.592;9.634;2022-12-17T12:17:45;12.20;;;7.80;;
1601;SDS011;794;48.592;9.634;2022-12-17T12:20:36;10.57;;;7.50;;
1601;SDS011;794;48.592;9.634;2022-12-17T12:23:40;13.23;;;8.10;;
1601;SDS011;794;48.592;9.634;2022-12-17T12:26:31;13.27;;;9.30;;
1601;SDS011;794;48.592;9.634;2022-12-17T12:29:24;11.73;;;7.40;;
1601;SDS011;794;48.592;9.634;2022-12-17T12:32:18;16.00;;;9.17;;
1601;SDS011;794;48.592;9.634;2022-12-17T12:35:11;20.87;;;9.97;;
1601;SDS011;794;48.592;9.634;2022-12-17T12:38:00;12.33;;;8.93;;
1601;SDS011;794;48.592;9.634;2022-12-17T12:40:46;15.00;;;9.80;;
1601;SDS011;794;48.592;9.634;2022-12-17T12:43:37;12.77;;;8.83;;
1601;SDS011;794;48.592;9.634;2022-12-17T12:46:28;11.47;;;8.20;;
1601;SDS011;794;48.592;9.634;2022-12-17T12:49:20;15.07;;;9.97;;
1601;SDS011;794;48.592;9.634;2022-12-17T12:52:16;14.70;;;9.00;;
1601;SDS011;794;48.592;9.634;2022-12-17T12:55:04;12.50;;;9.50;;
1601;SDS011;794;48.592;9.634;2022-12-17T12:57:55;14.80;;;8.67;;
1601;SDS011;794;48.592;9.634;2022-12-17T13:00:50;9.70;;;8.10;;
1601;SDS011;794;48.592;9.634;2022-12-17T13:03:38;12.10;;;8.73;;
1601;SDS011;794;48.592;9.634;2022-12-17T13:06:40;11.97;;;8.60;;
1601;SDS011;794;48.592;9.634;2022-12-17T13:09:31;17.40;;;9.00;;
1601;SDS011;794;48.592;9.634;2022-12-17T13:12:09;18.07;;;10.33;;
1601;SDS011;794;48.592;9.634;2022-12-17T13:17:57;14.47;;;8.53;;
1601;SDS011;794;48.592;9.634;2022-12-17T13:20:32;11.33;;;8.60;;
1601;SDS011;794;48.592;9.634;2022-12-17T13:23:27;18.00;;;9.07;;
1601;SDS011;794;48.592;9.634;2022-12-17T13:26:12;16.93;;;10.10;;
1601;SDS011;794;48.592;9.634;2022-12-17T13:28:48;14.47;;;9.90;;
1601;SDS011;794;48.592;9.634;2022-12-17T13:31:27;15.10;;;12.90;;
1601;SDS011;794;48.592;9.634;2022-12-17T13:34:00;13.50;;;8.60;;
1601;SDS011;794;48.592;9.634;2022-12-17T13:36:37;16.43;;;13.13;;
1601;SDS011;794;48.592;9.634;2022-12-17T13:39:11;19.10;;;9.63;;
1601;SDS011;794;48.592;9.634;2022-12-17T13:41:52;25.10;;;17.57;;
1601;SDS011;794;48.592;9.634;2022-12-17T13:44:23;46.23;;;31.13;;
1601;SDS011;794;48.592;9.634;2022-12-17T13:46:54;39.10;;;26.73;;
1601;SDS011;794;48.592;9.634;2022-12-17T13:49:23;14.33;;;9.53;;
1601;SDS011;794;48.592;9.634;2022-12-17T13:52:00;12.17;;;8.10;;
1601;SDS011;794;48.592;9.634;2022-12-17T13:54:28;63.57;;;34.17;;
1601;SDS011;794;48.592;9.634;2022-12-17T13:57:04;52.93;;;26.73;;
1601;SDS011;794;48.592;9.634;2022-12-17T13:59:34;84.00;;;46.47;;
1601;SDS011;794;48.592;9.634;2022-12-17T14:02:04;90.63;;;51.50;;
1601;SDS011;794;48.592;9.634;2022-12-17T14:04:34;20.00;;;13.70;;
1601;SDS011;794;48.592;9.634;2022-12-17T14:07:07;28.53;;;20.87;;
1601;SDS011;794;48.592;9.634;2022-12-17T14:09:36;17.13;;;11.47;;
1601;SDS011;794;48.592;9.634;2022-12-17T14:15:28;39.57;;;24.77;;
1601;SDS011;794;48.592;9.634;2022-12-17T14:17:56;22.90;;;14.40;;
1601;SDS011;794;48.592;9.634;2022-12-17T14:20:24;15.60;;;10.27;;
1601;SDS011;794;48.592;9.634;2022-12-17T14:22:58;31.10;;;17.77;;
1601;SDS011;794;48.592;9.634;2022-12-17T14:25:28;20.70;;;10.30;;
1601;SDS011;794;48.592;9.634;2022-12-17T14:28:01;18.80;;;12.50;;
1601;SDS011;794;48.592;9.634;2022-12-17T14:30:33;36.57;;;23.70;;
1601;SDS011;794;48.592;9.634;2022-12-17T14:33:18;19.80;;;12.47;;
1601;SDS011;794;48.592;9.634;2022-12-17T14:35:57;34.00;;;24.10;;
1601;SDS011;794;48.592;9.634;2022-12-17T14:38:27;47.37;;;27.23;;
1601;SDS011;794;48.592;9.634;2022-12-17T14:40:59;20.67;;;16.80;;
1601;SDS011;794;48.592;9.634;2022-12-17T14:43:53;31.60;;;21.90;;
1601;SDS011;794;48.592;9.634;2022-12-17T14:46:28;25.07;;;14.60;;
1601;SDS011;794;48.592;9.634;2022-12-17T14:48:57;41.37;;;31.80;;
1601;SDS011;794;48.592;9.634;2022-12-17T14:51:27;30.80;;;21.50;;
1601;SDS011;794;48.592;9.634;2022-12-17T14:54:05;30.87;;;18.13;;
1601;SDS011;794;48.592;9.634;2022-12-17T14:56:43;70.33;;;33.93;;
1601;SDS011;794;48.592;9.634;2022-12-17T14:59:21;69.83;;;38.10;;
1601;SDS011;794;48.592;9.634;2022-12-17T15:01:53;46.40;;;27.30;;
1601;SDS011;794;48.592;9.634;2022-12-17T15:04:22;39.30;;;20.47;;
1601;SDS011;794;48.592;9.634;2022-12-17T15:06:52;32.03;;;19.33;;
1601;SDS011;794;48.592;9.634;2022-12-17T15:09:23;22.90;;;13.40;;
1601;SDS011;794;48.592;9.634;2022-12-17T15:11:51;24.13;;;12.87;;
1601;SDS011;794;48.592;9.634;2022-12-17T15:14:21;60.60;;;37.40;;
1601;SDS011;794;48.592;9.634;2022-12-17T15:16:49;40.50;;;24.70;;
1601;SDS011;794;48.592;9.634;2022-12-17T15:19:16;29.97;;;18.40;;
1601;SDS011;794;48.592;9.634;2022-12-17T15:21:45;19.47;;;13.30;;
1601;SDS011;794;48.592;9.634;2022-12-17T15:24:13;23.83;;;14.93;;
1601;SDS011;794;48.592;9.634;2022-12-17T15:26:46;23.90;;;15.70;;
1601;SDS011;794;48.592;9.634;2022-12-17T15:29:14;24.33;;;15.93;;
1601;SDS011;794;48.592;9.634;2022-12-17T15:31:44;31.47;;;18.43;;
1601;SDS011;794;48.592;9.634;2022-12-17T15:34:13;24.57;;;16.57;;
1601;SDS011;794;48.592;9.634;2022-12-17T15:36:43;20.70;;;15.13;;
1601;SDS011;794;48.592;9.634;2022-12-17T15:39:11;34.10;;;14.17;;
1601;SDS011;794;48.592;9.634;2022-12-17T15:41:38;20.37;;;14.03;;
1601;SDS011;794;48.592;9.634;2022-12-17T15:44:28;23.30;;;13.17;;
1601;SDS011;794;48.592;9.634;2022-12-17T15:46:58;27.83;;;15.40;;
1601;SDS011;794;48.592;9.634;2022-12-17T15:49:25;20.50;;;13.50;;
1601;SDS011;794;48.592;9.634;2022-12-17T15:51:53;20.77;;;15.07;;
1601;SDS011;794;48.592;9.634;2022-12-17T15:54:21;21.07;;;11.53;;
1601;SDS011;794;48.592;9.634;2022-12-17T15:56:51;20.63;;;14.50;;
1601;SDS011;794;48.592;9.634;2022-12-17T15:59:19;24.40;;;15.07;;
1601;SDS011;794;48.592;9.634;2022-12-17T16:01:49;30.90;;;17.37;;
1601;SDS011;794;48.592;9.634;2022-12-17T16:04:18;27.73;;;17.77;;
1601;SDS011;794;48.592;9.634;2022-12-17T16:06:51;38.30;;;20.70;;
1601;SDS011;794;48.592;9.634;2022-12-17T16:09:20;29.07;;;18.13;;
1601;SDS011;794;48.592;9.634;2022-12-17T16:11:51;26.53;;;18.60;;
1601;SDS011;794;48.592;9.634;2022-12-17T16:14:22;20.77;;;17.13;;
1601;SDS011;794;48.592;9.634;2022-12-17T16:16:52;23.30;;;17.60;;
1601;SDS011;794;48.592;9.634;2022-12-17T16:19:23;28.93;;;17.53;;
1601;SDS011;794;48.592;9.634;2022-12-17T16:21:50;40.33;;;23.33;;
1601;SDS011;794;48.592;9.634;2022-12-17T16:24:19;24.90;;;15.07;;
1601;SDS011;794;48.592;9.634;2022-12-17T16:26:48;28.00;;;12.80;;
1601;SDS011;794;48.592;9.634;2022-12-17T16:29:17;27.43;;;13.83;;
1601;SDS011;794;48.592;9.634;2022-12-17T16:31:44;20.60;;;15.20;;
1601;SDS011;794;48.592;9.634;2022-12-17T16:34:15;25.30;;;14.57;;
1601;SDS011;794;48.592;9.634;2022-12-17T16:36:43;24.33;;;14.10;;
1601;SDS011;794;48.592;9.634;2022-12-17T16:39:13;32.07;;;13.77;;
1601;SDS011;794;48.592;9.634;2022-12-17T16:41:44;22.67;;;12.47;;
1601;SDS011;794;48.592;9.634;2022-12-17T16:44:15;21.20;;;13.37;;
1601;SDS011;794;48.592;9.634;2022-12-17T16:46:46;19.57;;;12.90;;
1601;SDS011;794;48.592;9.634;2022-12-17T16:49:17;25.20;;;14.30;;
1601;SDS011;794;48.592;9.634;2022-12-17T16:51:47;24.13;;;12.80;;